createdAt,value
2023-04-12T00:01:06.043Z,20.8
2023-04-12T00:06:05.749Z,20.9
2023-04-12T00:11:07.458Z,20.8
2023-04-12T00:16:07.959Z,20.9
2023-04-12T00:21:08.294Z,20.8
2023-04-12T00:26:11.504Z,20.8
2023-04-12T00:31:11.584Z,20.8
2023-04-12T00:36:12.293Z,20.8
2023-04-12T00:41:12.876Z,20.8
2023-04-12T00:46:16.064Z,20.8
2023-04-12T00:51:16.359Z,20.8
2023-04-12T00:56:16.948Z,20.8
2023-04-12T01:01:17.500Z,20.8
2023-04-12T01:06:20.860Z,20.8
2023-04-12T01:11:20.949Z,20.8
2023-04-12T01:16:21.476Z,20.8
2023-04-12T01:21:21.845Z,20.8
2023-04-12T01:26:22.657Z,20.8
2023-04-12T01:31:22.176Z,20.7
2023-04-12T01:36:25.808Z,20.7
2023-04-12T01:41:26.007Z,20.7
2023-04-12T01:46:29.248Z,20.7
2023-04-12T01:51:29.520Z,20.7
2023-04-12T01:56:32.790Z,20.7
2023-04-12T02:01:35.606Z,20.7
2023-04-12T02:06:35.355Z,20.7
2023-04-12T02:11:39.525Z,20.6
2023-04-12T02:16:39.469Z,20.7
2023-04-12T02:21:39.987Z,20.7
2023-04-12T02:26:40.507Z,20.6
2023-04-12T02:31:41.101Z,20.7
2023-04-12T02:36:44.284Z,20.7
2023-04-12T02:41:44.403Z,20.6
2023-04-12T02:46:44.791Z,20.6
2023-04-12T02:51:48.121Z,20.6
2023-04-12T02:56:48.260Z,20.6
2023-04-12T03:01:48.701Z,20.6
2023-04-12T03:06:49.134Z,20.6
2023-04-12T03:11:52.682Z,20.6
2023-04-12T03:16:52.786Z,20.6
2023-04-12T03:21:53.569Z,20.6
2023-04-12T03:26:56.656Z,20.6
2023-04-12T03:31:59.275Z,20.6
2023-04-12T03:37:02.267Z,20.6
2023-04-12T03:42:02.347Z,20.6
2023-04-12T03:47:03.076Z,20.5
2023-04-12T03:52:06.130Z,20.4
2023-04-12T03:57:08.718Z,20.6
2023-04-12T04:02:12.867Z,20.5
2023-04-12T04:07:12.630Z,20.5
2023-04-12T04:12:13.238Z,20.5
2023-04-12T04:17:13.853Z,20.5
2023-04-12T04:22:14.384Z,20.5
2023-04-12T04:27:17.764Z,20.5
2023-04-12T04:32:20.328Z,20.5
2023-04-12T04:37:20.359Z,20.5
2023-04-12T04:42:20.556Z,20.5
2023-04-12T04:47:24.138Z,20.5
2023-04-12T04:52:26.925Z,20.5
2023-04-12T04:57:29.698Z,20.5
2023-04-12T05:02:29.978Z,20.5
2023-04-12T05:07:33.243Z,20.5
2023-04-12T05:12:33.203Z,20.5
2023-04-12T05:17:33.673Z,20.5
2023-04-12T05:22:34.232Z,20.5
2023-04-12T05:27:34.614Z,20.4
2023-04-12T05:32:37.587Z,20.5
2023-04-12T05:37:37.892Z,20.5
2023-04-12T05:42:40.991Z,20.5
2023-04-12T05:47:43.848Z,20.5
2023-04-12T05:52:46.450Z,20.5
2023-04-12T05:57:46.527Z,20.4
2023-04-12T06:02:46.968Z,20.5
2023-04-12T06:07:50.264Z,20.5
2023-04-12T06:12:50.260Z,20.5
2023-04-12T06:17:50.745Z,20.5
2023-04-12T06:22:51.405Z,20.5
2023-04-12T06:27:52.066Z,20.5
2023-04-12T06:32:55.677Z,20.5
2023-04-12T06:37:58.276Z,20.5
2023-04-12T06:43:01.238Z,20.5
2023-04-12T06:48:00.335Z,20.5
2023-04-12T06:53:01.039Z,20.5
2023-04-12T06:58:02.748Z,20.5
2023-04-12T07:03:03.093Z,20.5
2023-04-12T07:08:03.524Z,20.5
2023-04-12T07:13:04.103Z,20.5
2023-04-12T07:18:04.748Z,20.6
2023-04-12T07:23:05.359Z,20.6
2023-04-12T07:28:08.371Z,20.6
2023-04-12T07:33:16.562Z,20.6
2023-04-12T07:38:07.211Z,20.6
2023-04-12T07:43:07.645Z,20.7
2023-04-12T07:48:07.946Z,20.7
2023-04-12T07:53:25.964Z,20.7
2023-04-12T07:58:24.291Z,20.8
2023-04-12T08:03:41.645Z,20.8
2023-04-12T08:08:39.708Z,20.8
2023-04-12T08:13:40.220Z,20.8
2023-04-12T08:18:40.592Z,20.8
2023-04-12T08:23:41.070Z,20.8
2023-04-12T08:28:41.737Z,20.8
2023-04-12T08:33:42.240Z,20.8
2023-04-12T08:38:45.910Z,20.8
2023-04-12T08:43:43.577Z,20.8
2023-04-12T08:48:44.121Z,20.8
2023-04-12T08:53:44.884Z,20.8
2023-04-12T08:58:45.144Z,20.8
2023-04-12T09:03:45.876Z,20.9
2023-04-12T09:08:46.219Z,20.9
2023-04-12T09:13:47.003Z,20.8
2023-04-12T09:18:50.144Z,20.9
2023-04-12T09:23:51.219Z,20.9
2023-04-12T09:28:51.712Z,20.8
2023-04-12T09:33:54.818Z,20.9
2023-04-12T09:38:54.781Z,20.9
2023-04-12T09:43:55.490Z,20.9
2023-04-12T09:48:55.978Z,20.9
2023-04-12T09:53:56.577Z,20.9
2023-04-12T09:58:57.261Z,20.9
2023-04-12T10:03:58.904Z,20.9
2023-04-12T10:08:59.058Z,20.9
2023-04-12T10:13:59.888Z,21
2023-04-12T10:19:00.248Z,21
2023-04-12T10:24:00.762Z,20.9
2023-04-12T10:29:01.356Z,21
2023-04-12T10:34:01.916Z,21
2023-04-12T10:39:02.545Z,21
2023-04-12T10:44:03.267Z,21
2023-04-12T10:49:03.956Z,21
2023-04-12T10:54:07.365Z,21
2023-04-12T10:59:07.415Z,21
2023-04-12T11:04:08.104Z,21
2023-04-12T11:09:08.433Z,21
2023-04-12T11:14:08.944Z,21
2023-04-12T11:19:09.404Z,21
2023-04-12T11:24:12.817Z,21
2023-04-12T11:29:12.799Z,21
2023-04-12T11:34:15.997Z,21
2023-04-12T11:39:14.217Z,21
2023-04-12T11:44:14.642Z,21
2023-04-12T11:49:15.190Z,21.1
2023-04-12T11:54:15.495Z,21.1
2023-04-12T11:59:18.626Z,21.1
2023-04-12T12:04:18.963Z,21.1
2023-04-12T12:09:19.412Z,21
2023-04-12T12:14:28.731Z,21.1
2023-04-12T12:19:30.606Z,21.1
2023-04-12T12:24:30.498Z,21.1
2023-04-12T12:29:31.013Z,21.1
2023-04-12T12:34:31.495Z,21
2023-04-12T12:39:34.951Z,21.1
2023-04-12T12:44:37.627Z,21.1
2023-04-12T12:49:38.505Z,21.1
2023-04-12T12:54:41.357Z,21.1
2023-04-12T12:59:41.969Z,21.1
2023-04-12T13:04:42.197Z,21.1
2023-04-12T13:09:45.639Z,21.1
2023-04-12T13:14:45.722Z,21.1
2023-04-12T13:19:49.143Z,21.1
2023-04-12T13:24:51.341Z,21.1
2023-04-12T13:29:51.537Z,21.1
2023-04-12T13:34:52.169Z,21.1
2023-04-12T13:39:53.752Z,21.1
2023-04-12T13:44:54.078Z,21.1
2023-04-12T13:49:54.798Z,21.2
2023-04-12T13:54:57.968Z,21.2
2023-04-12T13:59:58.116Z,21.2
2023-04-12T14:05:01.589Z,21.2
2023-04-12T14:10:01.590Z,21.2
2023-04-12T14:15:04.875Z,21.2
2023-04-12T14:20:05.056Z,21.2
2023-04-12T14:25:05.564Z,21.2
2023-04-12T14:30:06.083Z,21.3
2023-04-12T14:35:06.897Z,21.3
2023-04-12T14:40:10.393Z,21.3
2023-04-12T14:45:10.349Z,21.2
2023-04-12T14:50:13.593Z,21.3
2023-04-12T14:55:13.900Z,21.3
2023-04-12T15:00:14.501Z,21.4
2023-04-12T15:05:15.158Z,21.3
2023-04-12T15:10:15.786Z,21.4
2023-04-12T15:15:16.432Z,21.4
2023-04-12T15:20:19.831Z,21.4
2023-04-12T15:25:19.969Z,21.4
2023-04-12T15:30:20.560Z,21.4
2023-04-12T15:35:26.301Z,21.4
2023-04-12T15:40:21.575Z,21.4
2023-04-12T15:45:22.152Z,21.4
2023-04-12T15:50:22.982Z,21.4
2023-04-12T15:55:23.520Z,21.5
2023-04-12T16:00:24.241Z,21.5
2023-04-12T16:05:27.302Z,21.5
2023-04-12T16:10:27.357Z,21.4
2023-04-12T16:15:27.885Z,21.5
2023-04-12T16:20:31.210Z,21.5
2023-04-12T16:25:32.973Z,21.5
2023-04-12T16:30:33.330Z,21.4
2023-04-12T16:35:36.906Z,21.5
2023-04-12T16:40:36.914Z,21.5
2023-04-12T16:45:37.232Z,21.5
2023-04-12T16:50:37.719Z,21.5
2023-04-12T16:55:41.153Z,21.5
2023-04-12T17:00:41.290Z,21.5
2023-04-12T17:05:44.563Z,21.5
2023-04-12T17:10:44.755Z,21.4
2023-04-12T17:15:48.468Z,21.4
2023-04-12T17:20:51.257Z,21.5
2023-04-12T17:25:51.358Z,21.5
2023-04-12T17:30:51.947Z,21.5
2023-04-12T17:35:52.543Z,21.5
2023-04-12T17:40:53.266Z,21.5
2023-04-12T17:45:53.921Z,21.5
2023-04-12T17:50:54.436Z,21.4
2023-04-12T17:55:57.727Z,21.5
2023-04-12T18:00:57.841Z,21.4
2023-04-12T18:05:58.513Z,21.5
2023-04-12T18:11:01.677Z,21.5
2023-04-12T18:16:02.064Z,21.4
2023-04-12T18:21:02.439Z,21.4
2023-04-12T18:26:05.655Z,21.4
2023-04-12T18:31:08.527Z,21.3
2023-04-12T18:36:08.548Z,21.4
2023-04-12T18:41:11.864Z,21.4
2023-04-12T18:46:12.199Z,21.4
2023-04-12T18:51:12.920Z,21.4
2023-04-12T18:56:13.001Z,21.3
2023-04-12T19:01:13.531Z,21.3
2023-04-12T19:06:14.072Z,21.3
2023-04-12T19:11:17.261Z,21.3
2023-04-12T19:16:19.821Z,21.3
2023-04-12T19:21:19.955Z,21.3
2023-04-12T19:26:20.650Z,21.3
2023-04-12T19:31:21.483Z,21.3
2023-04-12T19:36:22.169Z,21.2
2023-04-12T19:41:25.477Z,21.2
2023-04-12T19:46:25.524Z,21.2
2023-04-12T19:51:26.058Z,21.2
2023-04-12T19:56:29.509Z,21.2
2023-04-12T20:01:32.391Z,21.1
2023-04-12T20:06:32.332Z,21.2
2023-04-12T20:11:33.060Z,21.1
2023-04-12T20:16:33.867Z,21.1
2023-04-12T20:21:34.370Z,21.1
2023-04-12T20:26:34.704Z,21.1
2023-04-12T20:31:35.313Z,21.1
2023-04-12T20:36:35.694Z,21.1
2023-04-12T20:41:36.361Z,21.1
2023-04-12T20:46:37.077Z,21.1
2023-04-12T20:51:37.627Z,21.1
2023-04-12T20:56:38.310Z,21
2023-04-12T21:06:43.722Z,21
2023-04-12T21:11:46.927Z,21
2023-04-12T21:16:47.057Z,21
2023-04-12T21:21:50.461Z,21
2023-04-12T21:26:53.362Z,21
2023-04-12T21:31:53.679Z,21
2023-04-12T21:36:54.257Z,21
2023-04-12T21:41:54.839Z,21
2023-04-12T21:46:55.365Z,21
2023-04-12T21:51:55.506Z,21
2023-04-12T21:56:56.242Z,20.9
2023-04-12T22:01:56.789Z,20.9
2023-04-12T22:06:57.509Z,20.9
2023-04-12T22:11:59.788Z,20.9
2023-04-12T22:17:03.088Z,20.9
2023-04-12T22:22:03.140Z,20.9
2023-04-12T22:27:03.569Z,20.9
2023-04-12T22:32:03.950Z,20.7
2023-04-12T22:37:04.346Z,20.8
2023-04-12T22:42:07.546Z,20.9
2023-04-12T22:47:07.545Z,20.8
2023-04-12T22:52:08.142Z,20.9
2023-04-12T22:57:08.657Z,20.8
2023-04-12T23:02:09.425Z,20.8
2023-04-12T23:07:09.780Z,20.8
2023-04-12T23:12:12.141Z,20.8
2023-04-12T23:17:12.599Z,20.8
2023-04-12T23:22:13.026Z,20.8
2023-04-12T23:27:16.395Z,20.7
2023-04-12T23:32:16.569Z,20.8
2023-04-12T23:37:19.809Z,20.7
2023-04-12T23:42:20.109Z,20.8
2023-04-12T23:47:20.811Z,20.7
2023-04-12T23:52:23.985Z,20.7
2023-04-12T23:57:26.755Z,20.7
